Time;durP1;ratioP1;P1;durP2;ratioP2;P2;SDS_P1;SDS_P2;PMS_P1;PMS_P2;Temp;Humidity;BMP_temperature;BMP_pressure;BME280_temperature;BME280_humidity;BME280_pressure;Samples;Min_cycle;Max_cycle;Signal;HPM_P1;HPM_P2
2021/12/13 00:01:00;;;;;;;;;;;;;;;;;;5075993;28;20085;-73
2021/12/13 00:03:30;;;;;;;22.25;9.20;;;;;;;;;;5094199;28;19954;-73
2021/12/13 00:06:01;;;;;;;20.50;9.52;;;;;;;;;;5075404;28;20038;-73
2021/12/13 00:08:29;;;;;;;18.65;9.30;;;;;;;;;;5071961;28;20427;-74
2021/12/13 00:11:16;;;;;;;23.38;10.27;;;;;;;;;;5072025;28;20025;-74
2021/12/13 00:13:44;;;;;;;22.30;11.07;;;;;;;;;;5072709;28;20031;-74
2021/12/13 00:16:11;;;;;;;21.10;9.18;;;;;;;;;;5071885;28;20401;-74
2021/12/13 00:18:40;;;;;;;23.33;10.77;;;;;;;;;;5074221;28;20046;-74
2021/12/13 00:21:12;;;;;;;28.05;11.55;;;;;;;;;;5080732;28;20529;-74
2021/12/13 00:23:51;;;;;;;26.00;11.63;;;;;;;;;;5078660;28;20507;-73
2021/12/13 00:26:22;;;;;;;26.58;10.57;;;;;;;;;;5078656;28;20085;-73
2021/12/13 00:28:49;;;;;;;27.35;11.18;;;;;;;;;;5078599;28;20028;-75
2021/12/13 00:31:23;;;;;;;26.55;10.20;;;;;;;;;;5080129;28;20081;-74
2021/12/13 00:33:57;;;;;;;24.13;10.90;;;;;;;;;;5078570;28;20029;-74
2021/12/13 00:36:30;;;;;;;22.80;10.18;;;;;;;;;;5078493;28;20038;-74
2021/12/13 00:39:00;;;;;;;25.05;11.38;;;;;;;;;;5079785;28;20496;-75
2021/12/13 00:41:27;;;;;;;24.63;10.80;;;;;;;;;;5079766;28;20027;-74
2021/12/13 00:43:56;;;;;;;23.17;10.77;;;;;;;;;;5078482;28;20025;-73
2021/12/13 00:46:24;;;;;;;25.73;11.23;;;;;;;;;;5079662;28;20493;-73
2021/12/13 00:48:52;;;;;;;25.33;10.55;;;;;;;;;;5078405;28;20111;-75
2021/12/13 00:51:44;;;;;;;21.20;8.88;;;;;;;;;;5079662;28;20078;-74
2021/12/13 00:54:14;;;;;;;22.42;9.80;;;;;;;;;;5076890;28;20622;-73
2021/12/13 00:56:56;;;;;;;22.00;9.73;;;;;;;;;;5078299;28;20115;-74
2021/12/13 00:59:28;;;;;;;24.05;10.70;;;;;;;;;;5078378;28;20036;-72
2021/12/13 01:02:02;;;;;;;23.58;10.55;;;;;;;;;;5078321;28;20016;-73
2021/12/13 01:04:47;;;;;;;23.67;9.88;;;;;;;;;;5078304;28;20033;-74
2021/12/13 01:07:31;;;;;;;24.00;10.38;;;;;;;;;;5079458;28;20101;-74
2021/12/13 01:10:20;;;;;;;22.95;10.13;;;;;;;;;;5100338;28;20023;-74
2021/12/13 01:12:48;;;;;;;21.73;10.25;;;;;;;;;;5099803;28;20027;-75
2021/12/13 01:15:19;;;;;;;24.13;10.07;;;;;;;;;;5081429;28;20456;-74
2021/12/13 01:18:04;;;;;;;22.15;10.00;;;;;;;;;;5081638;28;20476;-74
2021/12/13 01:20:43;;;;;;;21.27;9.07;;;;;;;;;;5081507;28;20071;-74
2021/12/13 01:23:17;;;;;;;22.83;10.23;;;;;;;;;;5099670;28;20047;-73
2021/12/13 01:25:59;;;;;;;24.48;9.98;;;;;;;;;;5081435;28;20158;-73
2021/12/13 01:28:33;;;;;;;23.05;9.23;;;;;;;;;;5081460;28;20040;-73
2021/12/13 01:31:03;;;;;;;27.90;9.88;;;;;;;;;;5097489;28;20468;-73
2021/12/13 01:33:31;;;;;;;26.23;9.75;;;;;;;;;;5096604;28;20103;-74
2021/12/13 01:36:00;;;;;;;21.08;9.15;;;;;;;;;;5096445;28;20040;-73
2021/12/13 01:38:34;;;;;;;27.17;10.15;;;;;;;;;;5096278;28;20047;-74
2021/12/13 01:41:08;;;;;;;22.65;9.75;;;;;;;;;;5062967;28;20115;-74
2021/12/13 01:43:35;;;;;;;24.17;9.48;;;;;;;;;;5078069;28;20358;-72
2021/12/13 01:46:01;;;;;;;21.67;10.10;;;;;;;;;;5096129;28;20052;-74
2021/12/13 01:48:33;;;;;;;29.15;10.63;;;;;;;;;;5096028;28;20031;-73
2021/12/13 01:51:05;;;;;;;24.95;11.05;;;;;;;;;;5077913;28;20027;-73
2021/12/13 01:53:43;;;;;;;25.38;10.32;;;;;;;;;;5077863;28;20485;-74
2021/12/13 01:56:44;;;;;;;24.83;10.73;;;;;;;;;;5077709;28;20467;-75
2021/12/13 01:59:29;;;;;;;23.50;11.07;;;;;;;;;;5077701;28;20020;-74
2021/12/13 02:02:00;;;;;;;25.58;11.02;;;;;;;;;;5095788;28;20040;-74
2021/12/13 02:04:27;;;;;;;29.88;11.52;;;;;;;;;;5077576;28;20497;-74
2021/12/13 02:06:56;;;;;;;27.13;11.75;;;;;;;;;;5095615;28;20067;-73
2021/12/13 02:09:24;;;;;;;28.00;12.43;;;;;;;;;;5073989;28;20044;-75
2021/12/13 02:11:56;;;;;;;24.77;11.70;;;;;;;;;;5074151;28;20035;-74
2021/12/13 02:14:25;;;;;;;24.48;11.43;;;;;;;;;;5075895;28;20433;-74
2021/12/13 02:17:09;;;;;;;25.92;11.75;;;;;;;;;;5074082;28;20452;-73
2021/12/13 02:19:35;;;;;;;;;;;;;;;;;;5074510;28;20094;-74
2021/12/13 02:22:21;;;;;;;27.15;10.88;;;;;;;;;;5075763;28;19912;-76
2021/12/13 02:24:48;;;;;;;29.20;12.20;;;;;;;;;;5068018;28;20037;-73
2021/12/13 02:27:17;;;;;;;27.48;12.32;;;;;;;;;;5073828;28;20078;-73
2021/12/13 02:29:43;;;;;;;28.92;12.15;;;;;;;;;;5073861;28;20028;-72
2021/12/13 02:32:10;;;;;;;28.65;12.95;;;;;;;;;;5073804;28;20081;-74
2021/12/13 02:34:38;;;;;;;26.17;11.85;;;;;;;;;;5073673;28;20064;-74
2021/12/13 02:37:06;;;;;;;28.83;12.70;;;;;;;;;;5073650;28;20028;-76
2021/12/13 02:39:34;;;;;;;27.13;12.45;;;;;;;;;;5073623;28;20103;-72
2021/12/13 02:42:02;;;;;;;30.60;14.00;;;;;;;;;;5073444;28;20020;-73
2021/12/13 02:44:30;;;;;;;30.67;14.00;;;;;;;;;;5073525;28;20167;-74
2021/12/13 02:47:06;;;;;;;29.58;12.85;;;;;;;;;;5073414;28;20119;-73
2021/12/13 02:49:32;;;;;;;32.63;12.25;;;;;;;;;;5073469;28;20031;-73
2021/12/13 02:52:00;;;;;;;29.25;12.25;;;;;;;;;;5074587;28;20021;-74
2021/12/13 02:54:27;;;;;;;32.65;13.35;;;;;;;;;;5074468;28;20504;-73
2021/12/13 02:56:55;;;;;;;27.27;13.77;;;;;;;;;;5074442;28;20115;-74
2021/12/13 02:59:23;;;;;;;26.98;11.52;;;;;;;;;;5073225;28;20473;-73
2021/12/13 03:01:56;;;;;;;26.45;12.55;;;;;;;;;;5073220;28;20085;-73
2021/12/13 03:04:24;;;;;;;22.25;9.40;;;;;;;;;;5075039;28;20474;-74
2021/12/13 03:07:11;;;;;;;22.98;11.30;;;;;;;;;;5074945;28;20029;-74
2021/12/13 03:09:39;;;;;;;26.95;10.60;;;;;;;;;;5094501;28;20419;-74
2021/12/13 03:12:09;;;;;;;21.35;11.77;;;;;;;;;;5076336;28;20059;-74
2021/12/13 03:14:40;;;;;;;22.50;12.00;;;;;;;;;;5076426;28;20051;-72
2021/12/13 03:17:17;;;;;;;23.70;10.15;;;;;;;;;;5094370;28;20047;-73
2021/12/13 03:19:43;;;;;;;24.10;11.15;;;;;;;;;;5076291;28;20492;-72
2021/12/13 03:22:15;;;;;;;20.67;9.85;;;;;;;;;;5076406;28;20461;-74
2021/12/13 03:25:02;;;;;;;20.33;9.82;;;;;;;;;;5076377;28;20074;-74
2021/12/13 03:27:41;;;;;;;21.08;9.93;;;;;;;;;;5094243;28;20473;-73
2021/12/13 03:30:10;;;;;;;22.05;10.07;;;;;;;;;;5094205;28;20070;-73
2021/12/13 03:32:56;;;;;;;22.60;10.55;;;;;;;;;;5075993;28;20043;-74
2021/12/13 03:35:35;;;;;;;19.10;9.15;;;;;;;;;;5075744;28;20068;-74
2021/12/13 03:38:04;;;;;;;20.73;9.13;;;;;;;;;;5075857;28;20362;-74
2021/12/13 03:40:31;;;;;;;19.95;9.73;;;;;;;;;;5075822;28;20024;-74
2021/12/13 03:42:59;;;;;;;21.55;9.65;;;;;;;;;;5093957;28;20585;-74
2021/12/13 03:45:38;;;;;;;21.40;9.90;;;;;;;;;;5094164;28;20077;-73
2021/12/13 03:48:05;;;;;;;18.85;9.45;;;;;;;;;;5075758;28;20027;-74
2021/12/13 03:50:34;;;;;;;18.80;9.35;;;;;;;;;;5076499;28;20056;-73
2021/12/13 03:53:01;;;;;;;22.45;10.18;;;;;;;;;;5059005;28;20035;-73
2021/12/13 03:55:29;;;;;;;22.55;10.75;;;;;;;;;;5075164;28;20041;-74
2021/12/13 03:57:58;;;;;;;23.55;10.85;;;;;;;;;;5093723;28;20020;-74
2021/12/13 04:00:27;;;;;;;23.55;11.30;;;;;;;;;;5093614;28;20115;-73
2021/12/13 04:02:56;;;;;;;22.00;10.65;;;;;;;;;;5075512;28;20028;-74
2021/12/13 04:05:24;;;;;;;23.55;10.85;;;;;;;;;;5093679;28;20031;-72
2021/12/13 04:07:53;;;;;;;20.85;10.23;;;;;;;;;;5071897;28;20041;-73
2021/12/13 04:10:30;;;;;;;21.92;10.65;;;;;;;;;;5072151;28;20056;-74
2021/12/13 04:12:59;;;;;;;20.95;10.38;;;;;;;;;;5072090;28;20054;-73
2021/12/13 04:15:47;;;;;;;24.83;11.68;;;;;;;;;;5072025;28;20060;-74
2021/12/13 04:18:39;;;;;;;21.77;10.45;;;;;;;;;;5073850;28;20081;-73
2021/12/13 04:21:06;;;;;;;24.92;11.30;;;;;;;;;;5072018;28;20020;-74
2021/12/13 04:23:33;;;;;;;22.42;10.55;;;;;;;;;;5073219;28;20477;-74
2021/12/13 04:26:00;;;;;;;25.73;9.20;;;;;;;;;;5073171;28;20036;-72
2021/12/13 04:28:32;;;;;;;20.20;9.00;;;;;;;;;;5073734;28;20025;-74
2021/12/13 04:31:01;;;;;;;21.35;9.73;;;;;;;;;;5071908;28;20082;-73
2021/12/13 04:33:32;;;;;;;18.52;8.38;;;;;;;;;;5071874;28;20537;-73
2021/12/13 04:36:04;;;;;;;17.48;8.10;;;;;;;;;;5071844;28;20036;-74
2021/12/13 04:38:35;;;;;;;18.08;9.02;;;;;;;;;;5071826;28;20476;-76
2021/12/13 04:41:02;;;;;;;16.98;7.97;;;;;;;;;;5071976;28;20104;-72
2021/12/13 04:43:28;;;;;;;22.17;8.63;;;;;;;;;;5071731;28;20491;-72
2021/12/13 04:45:56;;;;;;;17.70;8.05;;;;;;;;;;5071797;28;20432;-73
2021/12/13 04:48:25;;;;;;;16.67;8.23;;;;;;;;;;5073062;28;20021;-74
2021/12/13 04:50:53;;;;;;;18.52;8.60;;;;;;;;;;5072875;28;20060;-71
2021/12/13 04:53:21;;;;;;;17.73;8.70;;;;;;;;;;5071257;28;20492;-73
2021/12/13 04:55:48;;;;;;;16.85;9.52;;;;;;;;;;5071415;28;20132;-72
2021/12/13 04:58:16;;;;;;;17.73;8.45;;;;;;;;;;5073181;28;20375;-72
2021/12/13 05:00:45;;;;;;;19.50;8.45;;;;;;;;;;5071579;28;20424;-72
2021/12/13 05:03:12;;;;;;;17.23;8.48;;;;;;;;;;5072776;28;20021;-72
2021/12/13 05:05:39;;;;;;;18.00;8.57;;;;;;;;;;5073322;28;20036;-73
2021/12/13 05:08:10;;;;;;;18.17;8.52;;;;;;;;;;5075083;28;20044;-72
2021/12/13 05:10:37;;;;;;;17.42;8.77;;;;;;;;;;5076619;28;20056;-72
2021/12/13 05:13:09;;;;;;;17.25;8.68;;;;;;;;;;5075248;28;20066;-72
2021/12/13 05:15:37;;;;;;;16.33;7.97;;;;;;;;;;5075149;28;20528;-73
2021/12/13 05:18:07;;;;;;;16.45;7.55;;;;;;;;;;5075188;28;20042;-73
2021/12/13 05:20:35;;;;;;;16.70;8.05;;;;;;;;;;5075118;28;20472;-73
2021/12/13 05:23:09;;;;;;;17.85;7.95;;;;;;;;;;5075058;28;20044;-73
2021/12/13 05:25:56;;;;;;;19.13;8.40;;;;;;;;;;5074994;28;20052;-73
2021/12/13 05:28:27;;;;;;;18.90;8.95;;;;;;;;;;5075469;28;20131;-74
2021/12/13 05:30:58;;;;;;;20.00;9.20;;;;;;;;;;5074910;28;20035;-74
2021/12/13 05:33:27;;;;;;;30.65;15.25;;;;;;;;;;5074878;28;20028;-71
2021/12/13 05:35:55;;;;;;;23.85;11.80;;;;;;;;;;5083585;28;20125;-72
2021/12/13 05:38:26;;;;;;;19.77;11.32;;;;;;;;;;5079572;28;20098;-72
2021/12/13 05:40:52;;;;;;;17.88;9.52;;;;;;;;;;5084246;28;20027;-72
2021/12/13 05:43:30;;;;;;;18.92;8.63;;;;;;;;;;5094780;28;20039;-72
2021/12/13 05:45:59;;;;;;;16.65;8.77;;;;;;;;;;5095994;28;20035;-72
2021/12/13 05:48:37;;;;;;;17.38;8.40;;;;;;;;;;5094367;28;20430;-71
2021/12/13 05:51:06;;;;;;;17.70;10.50;;;;;;;;;;5094421;28;20173;-72
2021/12/13 05:53:35;;;;;;;36.50;18.48;;;;;;;;;;5094642;28;20028;-72
2021/12/13 05:56:04;;;;;;;21.52;11.45;;;;;;;;;;5094599;28;20118;-72
2021/12/13 05:58:37;;;;;;;16.90;8.70;;;;;;;;;;5093995;28;20059;-71
2021/12/13 06:01:11;;;;;;;20.70;9.40;;;;;;;;;;5095066;28;20360;-72
2021/12/13 06:03:37;;;;;;;;;;;;;;;;;;5094979;28;20408;-72
2021/12/13 06:06:10;;;;;;;15.98;8.27;;;;;;;;;;5095843;28;20394;-72
2021/12/13 06:08:40;;;;;;;15.35;8.82;;;;;;;;;;5106915;28;20055;-72
2021/12/13 06:11:11;;;;;;;19.17;8.48;;;;;;;;;;5115835;28;20043;-72
2021/12/13 06:13:44;;;;;;;18.33;8.15;;;;;;;;;;5115886;28;20016;-72
2021/12/13 06:16:11;;;;;;;17.40;9.30;;;;;;;;;;5115323;28;20062;-72
2021/12/13 06:18:57;;;;;;;21.02;11.13;;;;;;;;;;5115619;28;20047;-72
2021/12/13 06:21:42;;;;;;;21.55;12.13;;;;;;;;;;5098492;28;20027;-72
2021/12/13 06:24:10;;;;;;;23.48;12.15;;;;;;;;;;5115699;28;20027;-72
2021/12/13 06:26:36;;;;;;;42.28;22.50;;;;;;;;;;5097268;28;20045;-72
2021/12/13 06:29:06;;;;;;;46.83;28.30;;;;;;;;;;5097221;28;20031;-73
2021/12/13 06:31:40;;;;;;;21.08;10.68;;;;;;;;;;5097361;28;20049;-72
2021/12/13 06:34:08;;;;;;;24.05;11.52;;;;;;;;;;5114845;28;20059;-72
2021/12/13 06:36:39;;;;;;;20.63;11.40;;;;;;;;;;5096535;28;20031;-72
2021/12/13 06:39:09;;;;;;;26.90;15.70;;;;;;;;;;5115836;28;20031;-72
2021/12/13 06:41:39;;;;;;;19.13;10.63;;;;;;;;;;5096873;28;20053;-72
2021/12/13 06:44:07;;;;;;;21.38;9.52;;;;;;;;;;5096847;28;20110;-72
2021/12/13 06:46:44;;;;;;;16.95;8.95;;;;;;;;;;5096497;28;20563;-72
2021/12/13 06:49:13;;;;;;;17.65;9.40;;;;;;;;;;5115031;28;20422;-73
2021/12/13 06:52:05;;;;;;;22.10;11.15;;;;;;;;;;5096370;28;20487;-72
2021/12/13 06:54:35;;;;;;;22.02;9.80;;;;;;;;;;5058884;28;20040;-72
2021/12/13 06:57:01;;;;;;;17.92;10.13;;;;;;;;;;5096842;28;20015;-72
2021/12/13 06:59:28;;;;;;;19.05;9.60;;;;;;;;;;5115019;28;20070;-72
2021/12/13 07:01:59;;;;;;;18.90;10.52;;;;;;;;;;5096654;28;20428;-72
2021/12/13 07:04:26;;;;;;;15.60;8.57;;;;;;;;;;5096503;28;20460;-72
2021/12/13 07:06:52;;;;;;;18.45;9.55;;;;;;;;;;5114689;28;20023;-72
2021/12/13 07:09:20;;;;;;;18.13;9.27;;;;;;;;;;5092966;28;20498;-72
2021/12/13 07:11:55;;;;;;;14.68;7.93;;;;;;;;;;5092727;28;20500;-72
2021/12/13 07:14:36;;;;;;;17.95;8.07;;;;;;;;;;5092853;28;20031;-71
2021/12/13 07:17:10;;;;;;;16.85;8.25;;;;;;;;;;5092819;28;20044;-72
2021/12/13 07:19:39;;;;;;;14.15;7.20;;;;;;;;;;5093199;28;20016;-72
2021/12/13 07:22:07;;;;;;;13.82;6.90;;;;;;;;;;5094314;28;20024;-72
2021/12/13 07:24:44;;;;;;;17.48;7.68;;;;;;;;;;5092652;28;20024;-72
2021/12/13 07:27:13;;;;;;;16.08;7.78;;;;;;;;;;5092527;28;20056;-72
2021/12/13 07:29:39;;;;;;;14.63;7.57;;;;;;;;;;5093232;28;20085;-72
2021/12/13 07:32:24;;;;;;;12.00;7.15;;;;;;;;;;5093013;28;20031;-72
2021/12/13 07:35:00;;;;;;;12.40;6.78;;;;;;;;;;5092515;28;20415;-72
2021/12/13 07:37:35;;;;;;;13.30;6.40;;;;;;;;;;5092602;28;20028;-72
2021/12/13 07:40:13;;;;;;;12.13;6.75;;;;;;;;;;5092614;28;20028;-72
2021/12/13 07:42:40;;;;;;;12.23;6.10;;;;;;;;;;5093476;28;20140;-72
2021/12/13 07:45:21;;;;;;;12.95;6.80;;;;;;;;;;5092892;28;20024;-72
2021/12/13 07:47:48;;;;;;;10.85;5.75;;;;;;;;;;5093804;28;20047;-72
2021/12/13 07:50:14;;;;;;;10.32;5.85;;;;;;;;;;5092356;28;20020;-73
2021/12/13 07:52:40;;;;;;;10.25;5.90;;;;;;;;;;5092212;28;20472;-73
2021/12/13 07:55:15;;;;;;;12.45;5.30;;;;;;;;;;5091655;28;20532;-72
2021/12/13 07:57:42;;;;;;;11.25;5.40;;;;;;;;;;5092454;28;20024;-72
2021/12/13 08:00:16;;;;;;;11.20;6.07;;;;;;;;;;5092521;28;20089;-72
2021/12/13 08:02:53;;;;;;;10.07;5.45;;;;;;;;;;5092348;28;20107;-72
2021/12/13 08:05:23;;;;;;;13.25;6.47;;;;;;;;;;5093978;28;20085;-72
2021/12/13 08:07:59;;;;;;;72.93;30.98;;;;;;;;;;5075171;28;20044;-72
2021/12/13 08:10:34;;;;;;;18.40;8.98;;;;;;;;;;5092167;28;20028;-72
2021/12/13 08:13:06;;;;;;;17.95;10.50;;;;;;;;;;5093313;28;20089;-73
2021/12/13 08:15:36;;;;;;;13.38;6.50;;;;;;;;;;5093749;28;20032;-73
2021/12/13 08:18:20;;;;;;;11.95;7.00;;;;;;;;;;5093226;28;20048;-73
2021/12/13 08:20:48;;;;;;;12.60;6.60;;;;;;;;;;5075233;28;20036;-72
2021/12/13 08:23:22;;;;;;;11.45;5.82;;;;;;;;;;5092103;28;20115;-73
2021/12/13 08:25:48;;;;;;;;;;;;;;;;;;5092322;28;20110;-73
2021/12/13 08:28:18;;;;;;;13.18;6.95;;;;;;;;;;5092351;28;20368;-73
2021/12/13 08:30:46;;;;;;;10.70;6.25;;;;;;;;;;5093594;28;20414;-74
2021/12/13 08:33:15;;;;;;;8.85;4.75;;;;;;;;;;5091915;28;20077;-73
2021/12/13 08:35:50;;;;;;;8.77;4.60;;;;;;;;;;5091716;28;20082;-73
2021/12/13 08:38:39;;;;;;;8.75;5.00;;;;;;;;;;5092941;28;20430;-72
2021/12/13 08:41:19;;;;;;;10.57;5.30;;;;;;;;;;5057220;28;20150;-73
2021/12/13 08:43:54;;;;;;;24.05;14.43;;;;;;;;;;5095934;28;20493;-73
2021/12/13 08:46:40;;;;;;;26.52;18.15;;;;;;;;;;5095870;28;20385;-72
2021/12/13 08:49:14;;;;;;;12.30;7.97;;;;;;;;;;5079404;28;20028;-72
2021/12/13 08:51:49;;;;;;;11.40;6.07;;;;;;;;;;5097297;28;20028;-74
2021/12/13 08:54:16;;;;;;;12.13;8.50;;;;;;;;;;5095896;28;20479;-73
2021/12/13 08:56:49;;;;;;;9.80;5.55;;;;;;;;;;5077938;28;20032;-73
2021/12/13 08:59:18;;;;;;;;;;;;;;;;;;5096036;28;20035;-73
2021/12/13 09:01:49;;;;;;;6.68;3.72;;;;;;;;;;5095520;28;19912;-72
2021/12/13 09:04:24;;;;;;;9.40;5.57;;;;;;;;;;5096947;28;20024;-72
2021/12/13 09:06:52;;;;;;;7.03;3.67;;;;;;;;;;5095551;28;20036;-72
2021/12/13 09:09:19;;;;;;;7.00;3.25;;;;;;;;;;5113889;28;20050;-71
2021/12/13 09:11:45;;;;;;;5.50;3.55;;;;;;;;;;5098839;28;20080;-71
2021/12/13 09:14:15;;;;;;;6.60;3.90;;;;;;;;;;5098673;28;20015;-71
2021/12/13 09:16:43;;;;;;;6.53;3.50;;;;;;;;;;5098589;28;20036;-71
2021/12/13 09:19:12;;;;;;;6.60;4.75;;;;;;;;;;5098455;28;20022;-71
2021/12/13 09:21:50;;;;;;;6.32;3.25;;;;;;;;;;5098172;28;20020;-71
2021/12/13 09:24:24;;;;;;;8.15;3.88;;;;;;;;;;5098544;28;20468;-71
2021/12/13 09:26:50;;;;;;;;;;;;;;;;;;5099022;28;20035;-71
2021/12/13 09:29:18;;;;;;;7.95;4.25;;;;;;;;;;5117094;28;19931;-71
2021/12/13 09:31:44;;;;;;;6.95;3.45;;;;;;;;;;5098726;28;20495;-72
2021/12/13 09:34:14;;;;;;;14.75;9.80;;;;;;;;;;5116576;28;20015;-71
2021/12/13 09:36:41;;;;;;;9.32;6.45;;;;;;;;;;5098227;28;20075;-72
2021/12/13 09:39:17;;;;;;;5.90;3.28;;;;;;;;;;5116433;28;20472;-72
2021/12/13 09:41:46;;;;;;;8.00;5.03;;;;;;;;;;5097759;28;20458;-71
2021/12/13 09:44:12;;;;;;;7.00;3.58;;;;;;;;;;5098127;28;20427;-71
2021/12/13 09:47:08;;;;;;;7.75;3.50;;;;;;;;;;5098166;28;20032;-71
2021/12/13 09:49:52;;;;;;;6.57;3.45;;;;;;;;;;5094983;28;20040;-70
2021/12/13 09:52:37;;;;;;;6.68;3.05;;;;;;;;;;5115363;28;20051;-71
2021/12/13 09:55:23;;;;;;;6.53;3.15;;;;;;;;;;5097764;28;20122;-71
2021/12/13 09:57:52;;;;;;;6.18;3.03;;;;;;;;;;5098856;28;20114;-72
2021/12/13 10:00:23;;;;;;;5.18;2.90;;;;;;;;;;5116244;28;20023;-72
2021/12/13 10:02:51;;;;;;;7.40;3.90;;;;;;;;;;5097427;28;20376;-72
2021/12/13 10:05:20;;;;;;;10.40;4.82;;;;;;;;;;5097798;28;20118;-72
2021/12/13 10:07:51;;;;;;;8.55;4.15;;;;;;;;;;5115974;28;20047;-72
2021/12/13 10:10:20;;;;;;;10.25;4.07;;;;;;;;;;5115872;28;20089;-72
2021/12/13 10:12:48;;;;;;;8.35;3.72;;;;;;;;;;5115816;28;20024;-72
2021/12/13 10:15:22;;;;;;;6.97;3.90;;;;;;;;;;5097519;28;20035;-72
2021/12/13 10:17:49;;;;;;;9.60;4.80;;;;;;;;;;5115816;28;20023;-71
2021/12/13 10:20:41;;;;;;;7.40;3.72;;;;;;;;;;5086545;28;20030;-72
2021/12/13 10:23:12;;;;;;;9.98;3.72;;;;;;;;;;5092468;28;20062;-73
2021/12/13 10:25:40;;;;;;;7.15;3.25;;;;;;;;;;5097112;28;20110;-73
2021/12/13 10:28:12;;;;;;;8.43;4.20;;;;;;;;;;5097253;28;20490;-73
2021/12/13 10:30:43;;;;;;;10.38;3.80;;;;;;;;;;5097605;28;20027;-72
2021/12/13 10:33:09;;;;;;;4.45;2.08;;;;;;;;;;5115844;28;20388;-72
2021/12/13 10:35:38;;;;;;;4.25;2.08;;;;;;;;;;5097125;28;20069;-73
2021/12/13 10:38:09;;;;;;;7.18;3.50;;;;;;;;;;5115126;28;20035;-72
2021/12/13 10:40:38;;;;;;;5.68;2.50;;;;;;;;;;5114948;28;20489;-72
2021/12/13 10:43:06;;;;;;;5.20;2.55;;;;;;;;;;5096580;28;20387;-72
2021/12/13 10:45:39;;;;;;;3.38;1.98;;;;;;;;;;5115460;28;20024;-72
2021/12/13 10:48:07;;;;;;;5.07;2.38;;;;;;;;;;5115279;28;20073;-73
2021/12/13 10:50:33;;;;;;;5.18;2.38;;;;;;;;;;5096856;28;20059;-73
2021/12/13 10:52:59;;;;;;;8.52;2.83;;;;;;;;;;5115171;28;20038;-74
2021/12/13 10:55:28;;;;;;;5.47;2.60;;;;;;;;;;5096927;28;20027;-74
2021/12/13 10:57:55;;;;;;;4.57;2.95;;;;;;;;;;5114951;28;20072;-74
2021/12/13 11:00:28;;;;;;;7.82;2.97;;;;;;;;;;5114867;28;20019;-74
2021/12/13 11:02:57;;;;;;;6.90;2.90;;;;;;;;;;5096610;28;20503;-74
2021/12/13 11:05:23;;;;;;;4.18;2.40;;;;;;;;;;5114786;28;20080;-73
2021/12/13 11:07:50;;;;;;;4.97;2.30;;;;;;;;;;5092794;28;20039;-73
2021/12/13 11:10:20;;;;;;;2.63;1.70;;;;;;;;;;5094362;28;20024;-73
2021/12/13 11:12:48;;;;;;;3.50;1.95;;;;;;;;;;5094252;28;20024;-71
2021/12/13 11:15:17;;;;;;;5.15;1.95;;;;;;;;;;5094067;28;20031;-73
2021/12/13 11:17:43;;;;;;;2.95;1.60;;;;;;;;;;5094295;28;20384;-73
2021/12/13 11:20:11;;;;;;;3.15;1.75;;;;;;;;;;5092832;28;20016;-71
2021/12/13 11:22:38;;;;;;;3.78;1.77;;;;;;;;;;5094310;28;20128;-71
2021/12/13 11:25:11;;;;;;;2.97;1.60;;;;;;;;;;5094185;28;20107;-71
2021/12/13 11:27:37;;;;;;;3.50;1.77;;;;;;;;;;5092931;28;20063;-70
2021/12/13 11:30:09;;;;;;;4.22;2.20;;;;;;;;;;5092754;28;20024;-72
2021/12/13 11:32:37;;;;;;;4.05;1.83;;;;;;;;;;5092817;28;20027;-72
2021/12/13 11:35:09;;;;;;;3.50;1.98;;;;;;;;;;5092759;28;20143;-72
2021/12/13 11:37:54;;;;;;;3.85;1.45;;;;;;;;;;5093948;28;20035;-72
2021/12/13 11:40:20;;;;;;;6.00;1.95;;;;;;;;;;5091804;28;20047;-72
2021/12/13 11:43:05;;;;;;;7.20;2.20;;;;;;;;;;5091680;28;20020;-72
2021/12/13 11:45:49;;;;;;;6.30;2.78;;;;;;;;;;5091978;28;20119;-72
2021/12/13 11:48:34;;;;;;;8.80;4.20;;;;;;;;;;5093302;28;20095;-72
2021/12/13 11:51:06;;;;;;;10.38;4.70;;;;;;;;;;5092402;28;20388;-72
2021/12/13 11:53:52;;;;;;;7.80;4.07;;;;;;;;;;5092416;28;20076;-72
2021/12/13 11:56:37;;;;;;;6.43;3.28;;;;;;;;;;5092450;28;20020;-72
2021/12/13 11:59:18;;;;;;;9.27;3.70;;;;;;;;;;5093541;28;20063;-72
2021/12/13 12:01:48;;;;;;;6.88;4.10;;;;;;;;;;5092229;28;20020;-72
2021/12/13 12:04:49;;;;;;;7.35;4.10;;;;;;;;;;5092278;28;20058;-72
2021/12/13 12:07:34;;;;;;;8.00;4.35;;;;;;;;;;5092129;28;20119;-71
2021/12/13 12:10:20;;;;;;;7.93;4.57;;;;;;;;;;5093507;28;20034;-73
2021/12/13 12:13:04;;;;;;;9.30;4.93;;;;;;;;;;5093333;28;20576;-72
2021/12/13 12:15:31;;;;;;;10.63;4.60;;;;;;;;;;5074828;28;20035;-73
2021/12/13 12:18:00;;;;;;;9.13;4.70;;;;;;;;;;5093245;28;20498;-73
2021/12/13 12:20:28;;;;;;;10.18;5.53;;;;;;;;;;5075289;28;20054;-73
2021/12/13 12:22:57;;;;;;;10.00;4.90;;;;;;;;;;5093094;28;20052;-73
2021/12/13 12:25:25;;;;;;;10.95;5.28;;;;;;;;;;5075418;28;20492;-73
2021/12/13 12:27:54;;;;;;;9.75;5.43;;;;;;;;;;5093217;28;20465;-73
2021/12/13 12:30:21;;;;;;;9.02;5.05;;;;;;;;;;5092861;28;20024;-73
2021/12/13 12:32:54;;;;;;;8.27;4.70;;;;;;;;;;5075078;28;20081;-73
2021/12/13 12:35:31;;;;;;;9.20;4.93;;;;;;;;;;5093359;28;20013;-73
2021/12/13 12:37:58;;;;;;;9.27;5.07;;;;;;;;;;5075032;28;20032;-72
2021/12/13 12:40:35;;;;;;;9.70;5.25;;;;;;;;;;5093172;28;20066;-72
2021/12/13 12:43:06;;;;;;;10.05;4.80;;;;;;;;;;5075056;28;20030;-72
2021/12/13 12:45:39;;;;;;;8.90;4.88;;;;;;;;;;5074732;28;20028;-72
2021/12/13 12:48:10;;;;;;;9.70;4.90;;;;;;;;;;5092942;28;20059;-73
2021/12/13 12:50:39;;;;;;;8.38;4.18;;;;;;;;;;5093425;28;20017;-73
2021/12/13 12:53:10;;;;;;;15.70;4.75;;;;;;;;;;5093337;28;20024;-72
2021/12/13 12:55:43;;;;;;;9.48;4.22;;;;;;;;;;5093225;28;20411;-73
2021/12/13 12:58:11;;;;;;;9.50;4.90;;;;;;;;;;5074888;28;20020;-73
2021/12/13 13:00:38;;;;;;;8.07;4.57;;;;;;;;;;5092941;28;20059;-70
2021/12/13 13:03:05;;;;;;;8.57;4.60;;;;;;;;;;5074916;28;20035;-70
2021/12/13 13:05:31;;;;;;;6.63;3.95;;;;;;;;;;5092744;28;20036;-70
2021/12/13 13:07:57;;;;;;;7.97;4.20;;;;;;;;;;5097889;28;20056;-71
2021/12/13 13:10:26;;;;;;;9.48;4.57;;;;;;;;;;5095235;28;20031;-71
2021/12/13 13:12:55;;;;;;;7.60;4.47;;;;;;;;;;5094959;28;20501;-70
2021/12/13 13:15:24;;;;;;;8.10;4.30;;;;;;;;;;5113298;28;20026;-71
2021/12/13 13:17:57;;;;;;;8.63;4.57;;;;;;;;;;5113191;28;20030;-70
2021/12/13 13:20:29;;;;;;;6.80;4.07;;;;;;;;;;5113749;28;20152;-71
2021/12/13 13:22:57;;;;;;;7.75;4.00;;;;;;;;;;5094928;28;20476;-71
2021/12/13 13:25:24;;;;;;;7.40;3.85;;;;;;;;;;5094810;28;20089;-71
2021/12/13 13:27:52;;;;;;;7.00;3.40;;;;;;;;;;5096795;28;20024;-73
2021/12/13 13:30:27;;;;;;;7.47;3.80;;;;;;;;;;5098386;28;20028;-72
2021/12/13 13:32:53;;;;;;;5.93;3.38;;;;;;;;;;5116867;28;20030;-72
2021/12/13 13:35:19;;;;;;;5.65;3.25;;;;;;;;;;5098400;28;20105;-72
2021/12/13 13:37:46;;;;;;;6.38;3.38;;;;;;;;;;5116665;28;20433;-71
2021/12/13 13:40:20;;;;;;;7.10;3.53;;;;;;;;;;5098314;28;20028;-71
2021/12/13 13:42:52;;;;;;;6.35;3.47;;;;;;;;;;5098397;28;20036;-71
2021/12/13 13:45:21;;;;;;;7.75;4.32;;;;;;;;;;5116625;28;20080;-71
2021/12/13 13:47:48;;;;;;;9.88;4.07;;;;;;;;;;5097839;28;20538;-71
2021/12/13 13:50:23;;;;;;;7.68;4.25;;;;;;;;;;5098191;28;20031;-72
2021/12/13 13:52:51;;;;;;;8.60;4.18;;;;;;;;;;5098153;28;20379;-72
2021/12/13 13:55:20;;;;;;;7.80;4.00;;;;;;;;;;5098282;28;20031;-71
2021/12/13 13:57:50;;;;;;;6.30;3.88;;;;;;;;;;5098041;28;20019;-74
2021/12/13 14:00:17;;;;;;;8.05;3.90;;;;;;;;;;5116261;28;20391;-72
2021/12/13 14:02:43;;;;;;;6.88;3.55;;;;;;;;;;5097767;28;20387;-71
2021/12/13 14:05:10;;;;;;;6.38;3.83;;;;;;;;;;5097924;28;20377;-72
2021/12/13 14:07:38;;;;;;;7.35;3.53;;;;;;;;;;5097657;28;20635;-72
2021/12/13 14:10:04;;;;;;;7.30;3.88;;;;;;;;;;5115858;28;20034;-72
2021/12/13 14:12:35;;;;;;;9.23;4.78;;;;;;;;;;5097748;28;20390;-73
2021/12/13 14:15:01;;;;;;;5.85;3.28;;;;;;;;;;5097736;28;20020;-72
2021/12/13 14:17:36;;;;;;;7.15;3.60;;;;;;;;;;5097664;28;20089;-72
2021/12/13 14:20:14;;;;;;;8.48;4.25;;;;;;;;;;5097322;28;20047;-73
2021/12/13 14:22:41;;;;;;;11.15;5.40;;;;;;;;;;5080859;28;20023;-73
2021/12/13 14:25:07;;;;;;;11.00;5.90;;;;;;;;;;5115587;28;20098;-73
2021/12/13 14:27:33;;;;;;;12.57;6.57;;;;;;;;;;5097426;28;20542;-72
2021/12/13 14:30:09;;;;;;;10.95;6.47;;;;;;;;;;5115540;28;20047;-72
2021/12/13 14:32:35;;;;;;;11.40;5.88;;;;;;;;;;5097105;28;20468;-71
2021/12/13 14:35:11;;;;;;;10.95;5.78;;;;;;;;;;5097309;28;20123;-72
2021/12/13 14:37:38;;;;;;;7.88;4.43;;;;;;;;;;5115343;28;20487;-71
2021/12/13 14:40:05;;;;;;;8.02;4.25;;;;;;;;;;5115436;28;20098;-74
2021/12/13 14:42:31;;;;;;;11.35;5.43;;;;;;;;;;5097102;28;20034;-73
2021/12/13 14:44:59;;;;;;;8.38;4.95;;;;;;;;;;5115336;28;20027;-73
2021/12/13 14:47:36;;;;;;;9.95;5.38;;;;;;;;;;5115277;28;20487;-72
2021/12/13 14:50:10;;;;;;;9.98;5.13;;;;;;;;;;5096542;28;20055;-73
2021/12/13 14:52:42;;;;;;;11.45;6.20;;;;;;;;;;5115041;28;20106;-72
2021/12/13 14:55:10;;;;;;;9.07;5.30;;;;;;;;;;5115570;28;20020;-72
2021/12/13 14:57:36;;;;;;;11.07;6.00;;;;;;;;;;5096868;28;20027;-73
2021/12/13 15:00:07;;;;;;;14.32;7.53;;;;;;;;;;5096681;28;20072;-73